sensor_id;sensor_type;location;lat;lon;timestamp;temperature;humidity
2611;DHT22;5612;51.134;17.058;2023-12-29T00:01:29;5.50;1.00
2611;DHT22;5612;51.134;17.058;2023-12-29T00:04:01;5.60;99.90
2611;DHT22;5612;51.134;17.058;2023-12-29T00:06:30;5.60;1.00
2611;DHT22;5612;51.134;17.058;2023-12-29T00:09:03;5.60;1.00
2611;DHT22;5612;51.134;17.058;2023-12-29T00:11:34;5.70;1.00
2611;DHT22;5612;51.134;17.058;2023-12-29T00:14:04;5.70;1.00
2611;DHT22;5612;51.134;17.058;2023-12-29T00:16:33;5.80;1.00
2611;DHT22;5612;51.134;17.058;2023-12-29T00:19:03;5.80;1.00
2611;DHT22;5612;51.134;17.058;2023-12-29T00:21:33;5.80;1.00
2611;DHT22;5612;51.134;17.058;2023-12-29T00:24:03;5.80;1.00
2611;DHT22;5612;51.134;17.058;2023-12-29T00:26:34;5.90;1.00
2611;DHT22;5612;51.134;17.058;2023-12-29T00:29:04;5.80;1.00
2611;DHT22;5612;51.134;17.058;2023-12-29T00:31:35;5.80;1.00
2611;DHT22;5612;51.134;17.058;2023-12-29T00:34:05;5.90;1.00
2611;DHT22;5612;51.134;17.058;2023-12-29T00:36:34;5.80;1.00
2611;DHT22;5612;51.134;17.058;2023-12-29T00:39:04;5.90;1.00
2611;DHT22;5612;51.134;17.058;2023-12-29T00:41:36;5.90;1.00
2611;DHT22;5612;51.134;17.058;2023-12-29T00:44:07;5.90;1.00
2611;DHT22;5612;51.134;17.058;2023-12-29T00:46:36;5.80;1.00
2611;DHT22;5612;51.134;17.058;2023-12-29T00:49:06;5.80;1.00
2611;DHT22;5612;51.134;17.058;2023-12-29T00:51:39;5.70;1.00
2611;DHT22;5612;51.134;17.058;2023-12-29T00:54:10;5.70;1.00
2611;DHT22;5612;51.134;17.058;2023-12-29T00:56:41;5.70;1.00
2611;DHT22;5612;51.134;17.058;2023-12-29T00:59:11;5.80;1.00
2611;DHT22;5612;51.134;17.058;2023-12-29T01:01:41;5.80;1.00
2611;DHT22;5612;51.134;17.058;2023-12-29T01:04:12;5.80;1.00
2611;DHT22;5612;51.134;17.058;2023-12-29T01:06:42;5.90;1.00
2611;DHT22;5612;51.134;17.058;2023-12-29T01:09:12;6.00;1.00
2611;DHT22;5612;51.134;17.058;2023-12-29T01:11:44;5.90;1.00
2611;DHT22;5612;51.134;17.058;2023-12-29T01:14:13;5.90;1.00
2611;DHT22;5612;51.134;17.058;2023-12-29T01:16:42;5.90;1.00
2611;DHT22;5612;51.134;17.058;2023-12-29T01:19:12;5.80;1.00
2611;DHT22;5612;51.134;17.058;2023-12-29T01:21:42;5.80;1.00
2611;DHT22;5612;51.134;17.058;2023-12-29T01:24:12;5.90;1.00
2611;DHT22;5612;51.134;17.058;2023-12-29T01:26:45;5.90;1.00
2611;DHT22;5612;51.134;17.058;2023-12-29T01:29:14;5.90;1.00
2611;DHT22;5612;51.134;17.058;2023-12-29T01:31:44;5.90;1.00
2611;DHT22;5612;51.134;17.058;2023-12-29T01:34:13;5.90;1.00
2611;DHT22;5612;51.134;17.058;2023-12-29T01:36:43;5.90;1.00
2611;DHT22;5612;51.134;17.058;2023-12-29T01:39:13;5.90;1.00
2611;DHT22;5612;51.134;17.058;2023-12-29T01:41:47;5.90;99.90
2611;DHT22;5612;51.134;17.058;2023-12-29T01:44:21;5.90;1.00
2611;DHT22;5612;51.134;17.058;2023-12-29T01:46:53;5.80;99.90
2611;DHT22;5612;51.134;17.058;2023-12-29T01:49:23;5.80;1.00
2611;DHT22;5612;51.134;17.058;2023-12-29T01:51:55;5.90;1.00
2611;DHT22;5612;51.134;17.058;2023-12-29T01:54:27;5.90;99.90
2611;DHT22;5612;51.134;17.058;2023-12-29T01:57:01;5.90;99.90
2611;DHT22;5612;51.134;17.058;2023-12-29T01:59:31;5.90;1.00
2611;DHT22;5612;51.134;17.058;2023-12-29T02:02:02;5.90;99.90
2611;DHT22;5612;51.134;17.058;2023-12-29T02:04:31;6.00;99.90
2611;DHT22;5612;51.134;17.058;2023-12-29T02:07:01;6.00;99.90
2611;DHT22;5612;51.134;17.058;2023-12-29T02:09:31;6.00;99.90
2611;DHT22;5612;51.134;17.058;2023-12-29T02:12:06;6.00;99.90
2611;DHT22;5612;51.134;17.058;2023-12-29T02:14:36;5.90;99.90
2611;DHT22;5612;51.134;17.058;2023-12-29T02:17:13;5.90;99.90
2611;DHT22;5612;51.134;17.058;2023-12-29T02:19:47;6.00;99.90
2611;DHT22;5612;51.134;17.058;2023-12-29T02:22:18;6.00;99.90
2611;DHT22;5612;51.134;17.058;2023-12-29T02:24:50;6.00;99.90
2611;DHT22;5612;51.134;17.058;2023-12-29T02:27:31;6.00;99.90
2611;DHT22;5612;51.134;17.058;2023-12-29T02:30:09;6.00;99.90
2611;DHT22;5612;51.134;17.058;2023-12-29T02:32:41;6.20;1.00
2611;DHT22;5612;51.134;17.058;2023-12-29T02:35:14;6.10;99.90
2611;DHT22;5612;51.134;17.058;2023-12-29T02:37:45;6.20;99.90
2611;DHT22;5612;51.134;17.058;2023-12-29T02:40:17;6.10;99.90
2611;DHT22;5612;51.134;17.058;2023-12-29T02:42:48;6.10;98.80
2611;DHT22;5612;51.134;17.058;2023-12-29T02:45:18;6.10;99.90
2611;DHT22;5612;51.134;17.058;2023-12-29T02:47:48;6.00;1.00
2611;DHT22;5612;51.134;17.058;2023-12-29T02:50:18;6.10;99.90
2611;DHT22;5612;51.134;17.058;2023-12-29T02:52:48;6.10;99.90
2611;DHT22;5612;51.134;17.058;2023-12-29T02:55:19;6.10;1.00
2611;DHT22;5612;51.134;17.058;2023-12-29T02:57:49;6.10;1.00
2611;DHT22;5612;51.134;17.058;2023-12-29T03:00:18;6.10;99.90
2611;DHT22;5612;51.134;17.058;2023-12-29T03:02:48;6.00;99.90
2611;DHT22;5612;51.134;17.058;2023-12-29T03:05:18;6.10;99.90
2611;DHT22;5612;51.134;17.058;2023-12-29T03:07:47;6.00;49.30
2611;DHT22;5612;51.134;17.058;2023-12-29T03:10:18;6.00;3.60
2611;DHT22;5612;51.134;17.058;2023-12-29T03:12:48;6.00;99.90
2611;DHT22;5612;51.134;17.058;2023-12-29T03:15:18;6.00;99.90
2611;DHT22;5612;51.134;17.058;2023-12-29T03:17:47;6.00;28.00
2611;DHT22;5612;51.134;17.058;2023-12-29T03:20:17;6.00;99.90
2611;DHT22;5612;51.134;17.058;2023-12-29T03:22:46;5.90;1.00
2611;DHT22;5612;51.134;17.058;2023-12-29T03:25:17;6.00;1.00
2611;DHT22;5612;51.134;17.058;2023-12-29T03:27:46;6.00;99.90
2611;DHT22;5612;51.134;17.058;2023-12-29T03:30:15;6.10;1.00
2611;DHT22;5612;51.134;17.058;2023-12-29T03:32:44;6.20;1.00
2611;DHT22;5612;51.134;17.058;2023-12-29T03:35:13;6.40;1.00
2611;DHT22;5612;51.134;17.058;2023-12-29T03:37:41;6.50;99.90
2611;DHT22;5612;51.134;17.058;2023-12-29T03:40:11;6.60;1.00
2611;DHT22;5612;51.134;17.058;2023-12-29T03:42:41;6.70;99.90
2611;DHT22;5612;51.134;17.058;2023-12-29T03:45:10;6.70;99.90
2611;DHT22;5612;51.134;17.058;2023-12-29T03:47:39;6.70;99.90
2611;DHT22;5612;51.134;17.058;2023-12-29T03:50:08;6.70;99.90
2611;DHT22;5612;51.134;17.058;2023-12-29T03:52:37;6.70;99.90
2611;DHT22;5612;51.134;17.058;2023-12-29T03:55:06;6.70;99.90
2611;DHT22;5612;51.134;17.058;2023-12-29T03:57:35;6.70;99.90
2611;DHT22;5612;51.134;17.058;2023-12-29T04:00:07;6.70;99.90
2611;DHT22;5612;51.134;17.058;2023-12-29T04:02:36;6.50;99.90
2611;DHT22;5612;51.134;17.058;2023-12-29T04:05:07;6.40;1.00
2611;DHT22;5612;51.134;17.058;2023-12-29T04:07:36;6.40;1.00
2611;DHT22;5612;51.134;17.058;2023-12-29T04:10:05;6.40;1.00
2611;DHT22;5612;51.134;17.058;2023-12-29T04:12:35;6.30;99.90
2611;DHT22;5612;51.134;17.058;2023-12-29T04:15:06;6.30;99.90
2611;DHT22;5612;51.134;17.058;2023-12-29T04:17:35;6.40;99.90
2611;DHT22;5612;51.134;17.058;2023-12-29T04:20:04;6.50;99.90
2611;DHT22;5612;51.134;17.058;2023-12-29T04:22:33;6.50;99.90
2611;DHT22;5612;51.134;17.058;2023-12-29T04:25:03;6.50;99.90
2611;DHT22;5612;51.134;17.058;2023-12-29T04:27:31;6.60;1.00
2611;DHT22;5612;51.134;17.058;2023-12-29T04:30:00;6.60;48.40
2611;DHT22;5612;51.134;17.058;2023-12-29T04:32:31;6.60;1.00
2611;DHT22;5612;51.134;17.058;2023-12-29T04:35:00;6.60;1.00
2611;DHT22;5612;51.134;17.058;2023-12-29T04:37:29;6.60;21.50
2611;DHT22;5612;51.134;17.058;2023-12-29T04:39:57;6.70;1.00
2611;DHT22;5612;51.134;17.058;2023-12-29T04:42:26;6.70;1.00
2611;DHT22;5612;51.134;17.058;2023-12-29T04:44:55;6.70;1.00
2611;DHT22;5612;51.134;17.058;2023-12-29T04:47:23;6.70;1.00
2611;DHT22;5612;51.134;17.058;2023-12-29T04:49:54;6.70;99.90
2611;DHT22;5612;51.134;17.058;2023-12-29T04:52:23;6.70;99.90
2611;DHT22;5612;51.134;17.058;2023-12-29T04:54:52;6.60;99.90
2611;DHT22;5612;51.134;17.058;2023-12-29T04:57:20;6.60;99.90
2611;DHT22;5612;51.134;17.058;2023-12-29T04:59:49;6.50;99.90
2611;DHT22;5612;51.134;17.058;2023-12-29T05:02:18;6.60;1.00
2611;DHT22;5612;51.134;17.058;2023-12-29T05:04:48;6.50;1.00
2611;DHT22;5612;51.134;17.058;2023-12-29T05:07:19;6.50;1.00
2611;DHT22;5612;51.134;17.058;2023-12-29T05:09:47;6.50;99.90
2611;DHT22;5612;51.134;17.058;2023-12-29T05:12:16;6.60;31.80
2611;DHT22;5612;51.134;17.058;2023-12-29T05:14:45;6.60;1.00
2611;DHT22;5612;51.134;17.058;2023-12-29T05:17:14;6.70;99.90
2611;DHT22;5612;51.134;17.058;2023-12-29T05:19:42;6.70;1.00
2611;DHT22;5612;51.134;17.058;2023-12-29T05:22:11;6.60;99.90
2611;DHT22;5612;51.134;17.058;2023-12-29T05:24:44;6.60;99.90
2611;DHT22;5612;51.134;17.058;2023-12-29T05:27:13;6.80;99.90
2611;DHT22;5612;51.134;17.058;2023-12-29T05:29:42;6.80;99.90
2611;DHT22;5612;51.134;17.058;2023-12-29T05:32:10;6.80;99.90
2611;DHT22;5612;51.134;17.058;2023-12-29T05:34:39;6.90;99.90
2611;DHT22;5612;51.134;17.058;2023-12-29T05:37:08;6.90;99.90
2611;DHT22;5612;51.134;17.058;2023-12-29T05:39:36;7.00;99.90
2611;DHT22;5612;51.134;17.058;2023-12-29T05:42:07;7.10;1.00
2611;DHT22;5612;51.134;17.058;2023-12-29T05:44:36;7.10;1.00
2611;DHT22;5612;51.134;17.058;2023-12-29T05:47:05;7.20;1.00
2611;DHT22;5612;51.134;17.058;2023-12-29T05:49:34;7.20;99.90
2611;DHT22;5612;51.134;17.058;2023-12-29T05:52:07;7.10;1.00
2611;DHT22;5612;51.134;17.058;2023-12-29T05:54:35;7.20;1.00
2611;DHT22;5612;51.134;17.058;2023-12-29T05:57:06;7.20;1.00
2611;DHT22;5612;51.134;17.058;2023-12-29T05:59:34;7.20;99.90
2611;DHT22;5612;51.134;17.058;2023-12-29T06:02:03;7.20;1.00
2611;DHT22;5612;51.134;17.058;2023-12-29T06:04:32;7.20;1.00
2611;DHT22;5612;51.134;17.058;2023-12-29T06:07:01;7.20;1.00
2611;DHT22;5612;51.134;17.058;2023-12-29T06:09:29;7.20;1.00
2611;DHT22;5612;51.134;17.058;2023-12-29T06:11:58;7.20;99.90
2611;DHT22;5612;51.134;17.058;2023-12-29T06:14:28;7.30;99.90
2611;DHT22;5612;51.134;17.058;2023-12-29T06:16:57;7.30;99.90
2611;DHT22;5612;51.134;17.058;2023-12-29T06:19:26;7.20;99.90
2611;DHT22;5612;51.134;17.058;2023-12-29T06:21:55;7.30;99.90
2611;DHT22;5612;51.134;17.058;2023-12-29T06:24:24;7.20;99.90
2611;DHT22;5612;51.134;17.058;2023-12-29T06:26:53;7.20;99.90
2611;DHT22;5612;51.134;17.058;2023-12-29T06:29:22;7.30;99.90
2611;DHT22;5612;51.134;17.058;2023-12-29T06:31:52;7.30;99.90
2611;DHT22;5612;51.134;17.058;2023-12-29T06:34:21;7.40;99.90
2611;DHT22;5612;51.134;17.058;2023-12-29T06:36:49;7.40;99.90
2611;DHT22;5612;51.134;17.058;2023-12-29T06:39:19;7.40;99.90
2611;DHT22;5612;51.134;17.058;2023-12-29T06:41:48;7.30;99.90
2611;DHT22;5612;51.134;17.058;2023-12-29T06:44:17;7.30;99.90
2611;DHT22;5612;51.134;17.058;2023-12-29T06:46:46;7.20;99.90
2611;DHT22;5612;51.134;17.058;2023-12-29T06:49:16;7.30;99.90
2611;DHT22;5612;51.134;17.058;2023-12-29T06:51:45;7.30;99.90
2611;DHT22;5612;51.134;17.058;2023-12-29T06:54:13;7.30;99.90
2611;DHT22;5612;51.134;17.058;2023-12-29T06:56:42;7.40;99.90
2611;DHT22;5612;51.134;17.058;2023-12-29T06:59:11;7.50;99.90
2611;DHT22;5612;51.134;17.058;2023-12-29T07:01:39;7.60;10.10
2611;DHT22;5612;51.134;17.058;2023-12-29T07:04:08;7.60;1.00
2611;DHT22;5612;51.134;17.058;2023-12-29T07:06:40;7.70;1.00
2611;DHT22;5612;51.134;17.058;2023-12-29T07:09:09;7.70;1.00
2611;DHT22;5612;51.134;17.058;2023-12-29T07:11:37;7.70;1.00
2611;DHT22;5612;51.134;17.058;2023-12-29T07:14:06;7.80;1.00
2611;DHT22;5612;51.134;17.058;2023-12-29T07:16:35;7.90;1.00
2611;DHT22;5612;51.134;17.058;2023-12-29T07:19:04;7.90;1.00
2611;DHT22;5612;51.134;17.058;2023-12-29T07:21:33;7.90;1.00
2611;DHT22;5612;51.134;17.058;2023-12-29T07:24:04;8.00;1.00
2611;DHT22;5612;51.134;17.058;2023-12-29T07:26:33;8.10;99.90
2611;DHT22;5612;51.134;17.058;2023-12-29T07:29:04;8.00;1.00
2611;DHT22;5612;51.134;17.058;2023-12-29T07:31:33;8.00;1.00
2611;DHT22;5612;51.134;17.058;2023-12-29T07:34:02;8.10;99.90
2611;DHT22;5612;51.134;17.058;2023-12-29T07:36:31;8.20;99.90
2611;DHT22;5612;51.134;17.058;2023-12-29T07:38:59;8.20;99.90
2611;DHT22;5612;51.134;17.058;2023-12-29T07:41:29;8.20;99.90
2611;DHT22;5612;51.134;17.058;2023-12-29T07:43:58;8.20;99.90
2611;DHT22;5612;51.134;17.058;2023-12-29T07:46:27;8.30;99.90
2611;DHT22;5612;51.134;17.058;2023-12-29T07:48:55;8.40;99.90
2611;DHT22;5612;51.134;17.058;2023-12-29T07:51:24;8.40;99.90
2611;DHT22;5612;51.134;17.058;2023-12-29T07:53:53;8.40;99.90
2611;DHT22;5612;51.134;17.058;2023-12-29T07:56:22;8.50;99.90
2611;DHT22;5612;51.134;17.058;2023-12-29T07:58:52;8.50;99.90
2611;DHT22;5612;51.134;17.058;2023-12-29T08:01:20;8.50;99.90
2611;DHT22;5612;51.134;17.058;2023-12-29T08:03:49;8.60;99.90
2611;DHT22;5612;51.134;17.058;2023-12-29T08:06:18;8.60;99.90
2611;DHT22;5612;51.134;17.058;2023-12-29T08:08:47;8.60;99.90
2611;DHT22;5612;51.134;17.058;2023-12-29T08:11:16;8.70;99.90
2611;DHT22;5612;51.134;17.058;2023-12-29T08:13:47;8.80;99.90
2611;DHT22;5612;51.134;17.058;2023-12-29T08:16:18;8.80;99.90
2611;DHT22;5612;51.134;17.058;2023-12-29T08:18:47;8.90;99.90
2611;DHT22;5612;51.134;17.058;2023-12-29T08:21:17;9.00;99.90
2611;DHT22;5612;51.134;17.058;2023-12-29T08:23:47;9.10;99.90
2611;DHT22;5612;51.134;17.058;2023-12-29T08:26:16;9.20;99.90
2611;DHT22;5612;51.134;17.058;2023-12-29T08:28:45;9.30;99.90
2611;DHT22;5612;51.134;17.058;2023-12-29T08:33:43;9.50;99.90
2611;DHT22;5612;51.134;17.058;2023-12-29T08:36:12;9.70;99.90
2611;DHT22;5612;51.134;17.058;2023-12-29T08:38:41;9.70;99.90
2611;DHT22;5612;51.134;17.058;2023-12-29T08:41:13;9.90;99.90
2611;DHT22;5612;51.134;17.058;2023-12-29T08:43:42;10.00;99.90
2611;DHT22;5612;51.134;17.058;2023-12-29T08:46:12;10.10;99.90
2611;DHT22;5612;51.134;17.058;2023-12-29T08:48:40;10.20;99.90
2611;DHT22;5612;51.134;17.058;2023-12-29T08:51:11;10.40;82.70
2611;DHT22;5612;51.134;17.058;2023-12-29T08:53:40;10.50;79.30
2611;DHT22;5612;51.134;17.058;2023-12-29T08:56:08;10.60;69.20
2611;DHT22;5612;51.134;17.058;2023-12-29T08:58:37;11.00;42.50
2611;DHT22;5612;51.134;17.058;2023-12-29T09:01:06;11.30;23.40
2611;DHT22;5612;51.134;17.058;2023-12-29T09:03:35;11.70;11.40
2611;DHT22;5612;51.134;17.058;2023-12-29T09:06:04;12.20;1.00
2611;DHT22;5612;51.134;17.058;2023-12-29T09:08:34;12.70;1.00
2611;DHT22;5612;51.134;17.058;2023-12-29T09:11:03;13.00;1.00
2611;DHT22;5612;51.134;17.058;2023-12-29T09:13:32;13.00;1.00
2611;DHT22;5612;51.134;17.058;2023-12-29T09:16:00;13.00;1.00
2611;DHT22;5612;51.134;17.058;2023-12-29T09:18:29;13.40;1.00
2611;DHT22;5612;51.134;17.058;2023-12-29T09:21:01;13.60;1.00
2611;DHT22;5612;51.134;17.058;2023-12-29T09:23:29;14.00;1.00
2611;DHT22;5612;51.134;17.058;2023-12-29T09:26:00;14.00;1.00
2611;DHT22;5612;51.134;17.058;2023-12-29T09:28:30;13.70;1.00
2611;DHT22;5612;51.134;17.058;2023-12-29T09:30:59;13.40;1.00
2611;DHT22;5612;51.134;17.058;2023-12-29T09:33:28;13.60;1.00
2611;DHT22;5612;51.134;17.058;2023-12-29T09:35:57;14.00;1.00
2611;DHT22;5612;51.134;17.058;2023-12-29T09:38:26;14.80;1.00
2611;DHT22;5612;51.134;17.058;2023-12-29T09:40:55;15.40;1.00
2611;DHT22;5612;51.134;17.058;2023-12-29T09:43:29;15.70;1.00
2611;DHT22;5612;51.134;17.058;2023-12-29T09:46:00;16.10;1.00
2611;DHT22;5612;51.134;17.058;2023-12-29T09:48:31;16.10;1.00
2611;DHT22;5612;51.134;17.058;2023-12-29T09:51:03;16.30;1.00
2611;DHT22;5612;51.134;17.058;2023-12-29T09:53:35;16.40;1.00
2611;DHT22;5612;51.134;17.058;2023-12-29T09:56:07;16.40;1.00
2611;DHT22;5612;51.134;17.058;2023-12-29T09:58:38;16.40;1.00
2611;DHT22;5612;51.134;17.058;2023-12-29T10:01:06;16.40;1.00
2611;DHT22;5612;51.134;17.058;2023-12-29T10:03:36;16.50;1.00
2611;DHT22;5612;51.134;17.058;2023-12-29T10:06:06;16.40;1.00
2611;DHT22;5612;51.134;17.058;2023-12-29T10:08:38;16.80;1.00
2611;DHT22;5612;51.134;17.058;2023-12-29T10:11:12;16.80;1.00
2611;DHT22;5612;51.134;17.058;2023-12-29T10:13:43;16.80;1.00
2611;DHT22;5612;51.134;17.058;2023-12-29T10:16:18;16.40;1.00
2611;DHT22;5612;51.134;17.058;2023-12-29T10:18:55;15.70;1.00
2611;DHT22;5612;51.134;17.058;2023-12-29T10:21:28;15.50;1.00
2611;DHT22;5612;51.134;17.058;2023-12-29T10:24:05;15.30;1.00
2611;DHT22;5612;51.134;17.058;2023-12-29T10:26:38;15.40;1.00
2611;DHT22;5612;51.134;17.058;2023-12-29T10:29:09;15.50;1.00
2611;DHT22;5612;51.134;17.058;2023-12-29T10:31:38;16.30;1.00
2611;DHT22;5612;51.134;17.058;2023-12-29T10:34:20;16.50;1.00
2611;DHT22;5612;51.134;17.058;2023-12-29T10:36:56;15.90;1.00
2611;DHT22;5612;51.134;17.058;2023-12-29T10:39:25;16.30;1.00
2611;DHT22;5612;51.134;17.058;2023-12-29T10:42:03;16.90;1.00
2611;DHT22;5612;51.134;17.058;2023-12-29T10:44:35;16.80;1.00
2611;DHT22;5612;51.134;17.058;2023-12-29T10:47:10;17.20;1.00
2611;DHT22;5612;51.134;17.058;2023-12-29T10:49:40;17.20;1.00
2611;DHT22;5612;51.134;17.058;2023-12-29T10:52:12;17.50;1.00
2611;DHT22;5612;51.134;17.058;2023-12-29T10:54:42;17.70;1.00
2611;DHT22;5612;51.134;17.058;2023-12-29T10:57:12;17.20;1.00
2611;DHT22;5612;51.134;17.058;2023-12-29T10:59:43;16.20;1.00
2611;DHT22;5612;51.134;17.058;2023-12-29T11:02:12;15.30;1.00
2611;DHT22;5612;51.134;17.058;2023-12-29T11:04:43;14.80;1.00
2611;DHT22;5612;51.134;17.058;2023-12-29T11:07:12;14.60;1.00
2611;DHT22;5612;51.134;17.058;2023-12-29T11:09:41;14.20;1.00
2611;DHT22;5612;51.134;17.058;2023-12-29T11:12:11;14.20;1.00
2611;DHT22;5612;51.134;17.058;2023-12-29T11:14:43;14.30;1.00
2611;DHT22;5612;51.134;17.058;2023-12-29T11:17:16;14.10;1.00
2611;DHT22;5612;51.134;17.058;2023-12-29T11:19:46;14.40;1.00
2611;DHT22;5612;51.134;17.058;2023-12-29T11:22:16;15.30;1.00
2611;DHT22;5612;51.134;17.058;2023-12-29T11:24:46;16.10;1.00
2611;DHT22;5612;51.134;17.058;2023-12-29T11:27:17;16.30;1.00
2611;DHT22;5612;51.134;17.058;2023-12-29T11:29:47;15.90;1.00
2611;DHT22;5612;51.134;17.058;2023-12-29T11:32:20;15.00;1.00
2611;DHT22;5612;51.134;17.058;2023-12-29T11:34:54;15.60;1.00
2611;DHT22;5612;51.134;17.058;2023-12-29T11:37:32;16.60;1.00
2611;DHT22;5612;51.134;17.058;2023-12-29T11:40:14;17.80;1.00
2611;DHT22;5612;51.134;17.058;2023-12-29T11:42:49;19.00;1.00
2611;DHT22;5612;51.134;17.058;2023-12-29T11:45:29;19.80;1.00
2611;DHT22;5612;51.134;17.058;2023-12-29T11:47:59;20.00;1.00
2611;DHT22;5612;51.134;17.058;2023-12-29T11:50:31;19.70;1.00
2611;DHT22;5612;51.134;17.058;2023-12-29T11:53:00;19.20;1.00
2611;DHT22;5612;51.134;17.058;2023-12-29T11:55:30;18.80;1.00
2611;DHT22;5612;51.134;17.058;2023-12-29T11:57:59;18.50;1.00
2611;DHT22;5612;51.134;17.058;2023-12-29T12:00:46;17.90;1.00
2611;DHT22;5612;51.134;17.058;2023-12-29T12:03:23;17.70;1.00
2611;DHT22;5612;51.134;17.058;2023-12-29T12:05:53;17.80;1.00
2611;DHT22;5612;51.134;17.058;2023-12-29T12:08:30;16.50;1.00
2611;DHT22;5612;51.134;17.058;2023-12-29T12:14:04;15.00;1.00
2611;DHT22;5612;51.134;17.058;2023-12-29T12:16:51;15.10;1.00
2611;DHT22;5612;51.134;17.058;2023-12-29T12:19:21;15.20;1.00
2611;DHT22;5612;51.134;17.058;2023-12-29T12:21:53;15.00;1.00
2611;DHT22;5612;51.134;17.058;2023-12-29T12:24:23;14.50;1.00
2611;DHT22;5612;51.134;17.058;2023-12-29T12:26:54;14.20;1.00
2611;DHT22;5612;51.134;17.058;2023-12-29T12:29:22;13.80;1.00
2611;DHT22;5612;51.134;17.058;2023-12-29T12:31:54;13.60;1.00
2611;DHT22;5612;51.134;17.058;2023-12-29T12:34:23;13.50;1.00
2611;DHT22;5612;51.134;17.058;2023-12-29T12:36:53;13.40;1.00
2611;DHT22;5612;51.134;17.058;2023-12-29T12:39:24;13.20;1.00
2611;DHT22;5612;51.134;17.058;2023-12-29T12:41:52;13.10;1.00
2611;DHT22;5612;51.134;17.058;2023-12-29T12:44:21;13.10;1.00
2611;DHT22;5612;51.134;17.058;2023-12-29T12:46:59;13.00;1.00
2611;DHT22;5612;51.134;17.058;2023-12-29T12:49:29;13.00;1.00
2611;DHT22;5612;51.134;17.058;2023-12-29T12:51:58;12.90;1.00
2611;DHT22;5612;51.134;17.058;2023-12-29T12:54:27;12.90;1.00
2611;DHT22;5612;51.134;17.058;2023-12-29T12:56:56;12.90;1.00
2611;DHT22;5612;51.134;17.058;2023-12-29T12:59:24;13.10;1.00
2611;DHT22;5612;51.134;17.058;2023-12-29T13:01:57;13.30;1.00
2611;DHT22;5612;51.134;17.058;2023-12-29T13:04:26;13.50;1.00
2611;DHT22;5612;51.134;17.058;2023-12-29T13:06:55;13.40;1.00
2611;DHT22;5612;51.134;17.058;2023-12-29T13:09:23;13.50;1.00
2611;DHT22;5612;51.134;17.058;2023-12-29T13:12:07;13.60;1.00
2611;DHT22;5612;51.134;17.058;2023-12-29T13:14:36;13.70;1.00
2611;DHT22;5612;51.134;17.058;2023-12-29T13:17:10;13.60;1.00
2611;DHT22;5612;51.134;17.058;2023-12-29T13:19:39;13.40;1.00
2611;DHT22;5612;51.134;17.058;2023-12-29T13:22:09;13.40;1.00
2611;DHT22;5612;51.134;17.058;2023-12-29T13:24:43;13.20;1.00
2611;DHT22;5612;51.134;17.058;2023-12-29T13:27:13;13.00;1.00
2611;DHT22;5612;51.134;17.058;2023-12-29T13:29:42;12.70;1.00
2611;DHT22;5612;51.134;17.058;2023-12-29T13:32:17;12.70;1.00
2611;DHT22;5612;51.134;17.058;2023-12-29T13:34:52;12.60;1.00
2611;DHT22;5612;51.134;17.058;2023-12-29T13:37:25;12.50;1.00
2611;DHT22;5612;51.134;17.058;2023-12-29T13:40:03;12.50;1.00
2611;DHT22;5612;51.134;17.058;2023-12-29T13:42:37;12.40;1.00
2611;DHT22;5612;51.134;17.058;2023-12-29T13:45:10;12.40;1.00
2611;DHT22;5612;51.134;17.058;2023-12-29T13:47:40;12.40;1.00
2611;DHT22;5612;51.134;17.058;2023-12-29T13:50:10;12.30;1.00
2611;DHT22;5612;51.134;17.058;2023-12-29T13:52:39;12.20;1.00
2611;DHT22;5612;51.134;17.058;2023-12-29T13:55:08;12.20;1.00
2611;DHT22;5612;51.134;17.058;2023-12-29T13:57:37;12.10;1.00
2611;DHT22;5612;51.134;17.058;2023-12-29T14:00:16;12.00;1.00
2611;DHT22;5612;51.134;17.058;2023-12-29T14:02:48;12.00;1.00
2611;DHT22;5612;51.134;17.058;2023-12-29T14:05:20;11.90;1.00
2611;DHT22;5612;51.134;17.058;2023-12-29T14:07:55;11.70;1.00
2611;DHT22;5612;51.134;17.058;2023-12-29T14:10:29;11.70;1.00
2611;DHT22;5612;51.134;17.058;2023-12-29T14:13:07;11.70;1.00
2611;DHT22;5612;51.134;17.058;2023-12-29T14:15:36;11.70;1.00
2611;DHT22;5612;51.134;17.058;2023-12-29T14:18:15;11.60;1.00
2611;DHT22;5612;51.134;17.058;2023-12-29T14:20:50;11.60;1.00
2611;DHT22;5612;51.134;17.058;2023-12-29T14:23:19;11.60;1.00
2611;DHT22;5612;51.134;17.058;2023-12-29T14:25:48;11.50;1.00
2611;DHT22;5612;51.134;17.058;2023-12-29T14:28:18;11.40;1.00
2611;DHT22;5612;51.134;17.058;2023-12-29T14:30:48;11.30;1.00
2611;DHT22;5612;51.134;17.058;2023-12-29T14:33:19;11.20;3.80
2611;DHT22;5612;51.134;17.058;2023-12-29T14:35:48;11.00;7.50
2611;DHT22;5612;51.134;17.058;2023-12-29T14:38:17;10.90;17.60
2611;DHT22;5612;51.134;17.058;2023-12-29T14:40:46;10.80;18.70
2611;DHT22;5612;51.134;17.058;2023-12-29T14:43:15;10.70;21.30
2611;DHT22;5612;51.134;17.058;2023-12-29T14:45:44;10.70;30.30
2611;DHT22;5612;51.134;17.058;2023-12-29T14:48:13;10.60;31.90
2611;DHT22;5612;51.134;17.058;2023-12-29T14:50:44;10.60;27.10
2611;DHT22;5612;51.134;17.058;2023-12-29T14:53:13;10.50;24.20
2611;DHT22;5612;51.134;17.058;2023-12-29T14:55:42;10.50;29.90
2611;DHT22;5612;51.134;17.058;2023-12-29T14:58:12;10.60;25.60
2611;DHT22;5612;51.134;17.058;2023-12-29T15:00:44;10.50;30.30
2611;DHT22;5612;51.134;17.058;2023-12-29T15:03:14;10.40;36.30
2611;DHT22;5612;51.134;17.058;2023-12-29T15:05:45;10.40;41.90
2611;DHT22;5612;51.134;17.058;2023-12-29T15:08:14;10.30;48.50
2611;DHT22;5612;51.134;17.058;2023-12-29T15:10:44;10.30;54.80
2611;DHT22;5612;51.134;17.058;2023-12-29T15:13:13;10.20;66.40
2611;DHT22;5612;51.134;17.058;2023-12-29T15:15:43;10.10;74.00
2611;DHT22;5612;51.134;17.058;2023-12-29T15:18:12;10.10;78.60
2611;DHT22;5612;51.134;17.058;2023-12-29T15:20:41;10.10;72.90
2611;DHT22;5612;51.134;17.058;2023-12-29T15:23:12;10.10;68.20
2611;DHT22;5612;51.134;17.058;2023-12-29T15:25:41;10.10;64.70
2611;DHT22;5612;51.134;17.058;2023-12-29T15:28:10;10.10;65.70
2611;DHT22;5612;51.134;17.058;2023-12-29T15:30:39;10.10;69.60
2611;DHT22;5612;51.134;17.058;2023-12-29T15:33:08;10.10;74.50
2611;DHT22;5612;51.134;17.058;2023-12-29T15:35:37;10.10;59.60
2611;DHT22;5612;51.134;17.058;2023-12-29T15:38:07;10.10;64.30
2611;DHT22;5612;51.134;17.058;2023-12-29T15:40:37;10.00;66.40
2611;DHT22;5612;51.134;17.058;2023-12-29T15:43:06;10.10;52.90
2611;DHT22;5612;51.134;17.058;2023-12-29T15:45:36;10.10;53.90
2611;DHT22;5612;51.134;17.058;2023-12-29T15:48:05;10.00;55.00
2611;DHT22;5612;51.134;17.058;2023-12-29T15:50:34;10.00;66.70
2611;DHT22;5612;51.134;17.058;2023-12-29T15:53:03;10.00;81.70
2611;DHT22;5612;51.134;17.058;2023-12-29T15:55:32;9.90;72.10
2611;DHT22;5612;51.134;17.058;2023-12-29T15:58:03;9.90;82.90
2611;DHT22;5612;51.134;17.058;2023-12-29T16:00:32;9.80;82.80
2611;DHT22;5612;51.134;17.058;2023-12-29T16:03:02;9.90;71.90
2611;DHT22;5612;51.134;17.058;2023-12-29T16:05:31;10.00;57.70
2611;DHT22;5612;51.134;17.058;2023-12-29T16:08:00;10.00;53.20
2611;DHT22;5612;51.134;17.058;2023-12-29T16:10:29;10.10;50.30
2611;DHT22;5612;51.134;17.058;2023-12-29T16:12:58;10.10;46.90
2611;DHT22;5612;51.134;17.058;2023-12-29T16:15:28;10.20;38.70
2611;DHT22;5612;51.134;17.058;2023-12-29T16:17:57;10.20;35.10
2611;DHT22;5612;51.134;17.058;2023-12-29T16:20:28;10.20;38.20
2611;DHT22;5612;51.134;17.058;2023-12-29T16:22:56;10.20;33.60
2611;DHT22;5612;51.134;17.058;2023-12-29T16:25:25;10.20;36.50
2611;DHT22;5612;51.134;17.058;2023-12-29T16:27:54;10.20;32.50